Time;durP1;ratioP1;P1;durP2;ratioP2;P2;SDS_P1;SDS_P2;PMS_P1;PMS_P2;Temp;Humidity;BMP_temperature;BMP_pressure;BME280_temperature;BME280_humidity;BME280_pressure;Samples;Min_cycle;Max_cycle;Signal;HPM_P1;HPM_P2
2022/07/10 00:00:24;;;;;;;4.28;1.33;;;;;;;;;;5035055;28;20355;-70
2022/07/10 00:02:52;;;;;;;2.97;1.27;;;;;;;;;;5052918;28;20130;-71
2022/07/10 00:05:17;;;;;;;5.55;1.30;;;;;;;;;;5052946;28;20548;-71
2022/07/10 00:07:42;;;;;;;3.17;1.08;;;;;;;;;;5052770;28;20029;-70
2022/07/10 00:10:08;;;;;;;6.22;1.23;;;;;;;;;;5053067;28;20045;-70
2022/07/10 00:12:33;;;;;;;13.23;1.10;;;;;;;;;;5035012;28;20013;-71
2022/07/10 00:14:59;;;;;;;7.10;1.20;;;;;;;;;;5052726;28;20028;-71
2022/07/10 00:17:25;;;;;;;2.70;1.00;;;;;;;;;;5052941;28;20493;-69
2022/07/10 00:19:50;;;;;;;3.10;1.10;;;;;;;;;;5051972;28;20060;-70
2022/07/10 00:22:15;;;;;;;4.40;1.10;;;;;;;;;;5052727;28;20104;-70
2022/07/10 00:24:41;;;;;;;6.97;0.90;;;;;;;;;;5034826;28;20094;-70
2022/07/10 00:27:06;;;;;;;6.00;1.00;;;;;;;;;;5052731;28;20048;-72
2022/07/10 00:29:32;;;;;;;2.47;0.90;;;;;;;;;;5055580;28;20432;-79
2022/07/10 00:31:57;;;;;;;6.70;0.97;;;;;;;;;;5056739;28;20025;-79
2022/07/10 00:34:22;;;;;;;5.00;1.10;;;;;;;;;;5043646;28;20261;-80
2022/07/10 00:36:47;;;;;;;12.57;1.30;;;;;;;;;;5058831;28;20262;-77
2022/07/10 02:39:14;;;;;;;2.67;0.82;;;;;;;;;;5152494;22;20079;-78
2022/07/10 02:54:17;;;;;;;3.13;0.75;;;;;;;;;;5246573;22;20056;-78
2022/07/10 03:56:00;;;;;;;5.72;0.82;;;;;;;;;;5075922;28;20032;-77
2022/07/10 03:58:34;;;;;;;2.03;0.80;;;;;;;;;;5075470;28;20493;-79
2022/07/10 04:01:20;;;;;;;2.47;0.80;;;;;;;;;;5075178;28;20026;-77
2022/07/10 04:17:59;;;;;;;3.85;0.90;;;;;;;;;;4954046;28;20034;-78
2022/07/10 04:20:55;;;;;;;2.88;0.80;;;;;;;;;;4956200;29;20164;-78
2022/07/10 04:23:46;;;;;;;5.53;0.75;;;;;;;;;;4955407;28;20032;-77
2022/07/10 04:26:41;;;;;;;3.35;0.80;;;;;;;;;;5037395;28;20133;-78
2022/07/10 04:29:38;;;;;;;4.80;0.95;;;;;;;;;;5068576;28;20047;-77
2022/07/10 04:32:15;;;;;;;4.13;0.88;;;;;;;;;;5080181;28;20029;-78
2022/07/10 04:34:48;;;;;;;3.10;0.88;;;;;;;;;;5079882;28;20089;-77
2022/07/10 04:44:11;;;;;;;4.07;0.82;;;;;;;;;;5007948;28;20045;-77
2022/07/10 04:46:54;;;;;;;5.72;0.73;;;;;;;;;;5016950;28;20502;-79
2022/07/10 04:50:14;;;;;;;5.88;0.80;;;;;;;;;;5000481;28;20083;-79
2022/07/10 05:06:23;;;;;;;;;;;;;;;;;;;;;
2022/07/10 05:20:11;;;;;;;5.43;0.82;;;;;;;;;;5184217;22;20049;-79
2022/07/10 05:22:53;;;;;;;3.67;0.85;;;;;;;;;;5079418;28;20631;-77
2022/07/10 05:26:12;;;;;;;2.13;0.70;;;;;;;;;;5078884;28;20549;-78
2022/07/10 05:49:10;;;;;;;4.28;0.88;;;;;;;;;;5656882;22;20049;-77
2022/07/10 05:55:56;;;;;;;4.45;0.85;;;;;;;;;;5021778;28;20077;-77
2022/07/10 05:58:55;;;;;;;3.22;0.70;;;;;;;;;;5058069;28;20025;-77
2022/07/10 06:04:39;;;;;;;1.42;0.52;;;;;;;;;;5059159;28;20031;-77
2022/07/10 06:10:21;;;;;;;3.22;0.60;;;;;;;;;;5973786;22;20041;-78
2022/07/10 06:13:06;;;;;;;1.35;0.43;;;;;;;;;;4976289;28;20047;-77
2022/07/10 06:15:33;;;;;;;2.25;0.50;;;;;;;;;;5065828;28;20041;-80
2022/07/10 06:18:21;;;;;;;2.13;0.45;;;;;;;;;;5077433;28;20385;-79
2022/07/10 06:21:00;;;;;;;3.00;0.52;;;;;;;;;;5076951;28;20024;-77
2022/07/10 06:27:29;;;;;;;5.63;0.70;;;;;;;;;;4976127;28;20027;-76
2022/07/10 06:29:55;;;;;;;1.30;0.50;;;;;;;;;;4976521;28;20106;-78
2022/07/10 06:35:59;;;;;;;2.25;0.70;;;;;;;;;;4862449;29;20516;-77
2022/07/10 06:41:28;;;;;;;2.45;0.77;;;;;;;;;;4308349;26;20053;-77
2022/07/10 06:44:18;;;;;;;2.28;0.70;;;;;;;;;;5035200;28;20037;-77
2022/07/10 06:47:55;;;;;;;1.10;0.63;;;;;;;;;;5020039;28;20041;-79
2022/07/10 06:52:06;;;;;;;5.18;0.80;;;;;;;;;;5101414;22;20051;-78
2022/07/10 06:54:32;;;;;;;2.20;0.70;;;;;;;;;;5070758;28;20032;-77
2022/07/10 06:56:58;;;;;;;2.20;0.80;;;;;;;;;;5076023;28;20031;-77
2022/07/10 06:59:23;;;;;;;4.53;0.80;;;;;;;;;;5077395;28;20111;-79
2022/07/10 07:01:51;;;;;;;2.40;0.50;;;;;;;;;;5076683;28;20028;-79
2022/07/10 07:04:16;;;;;;;4.28;0.43;;;;;;;;;;5076628;28;20028;-79
2022/07/10 07:06:42;;;;;;;2.27;0.53;;;;;;;;;;5076324;28;20378;-78
2022/07/10 07:09:07;;;;;;;4.07;0.67;;;;;;;;;;5076533;28;20261;-77
2022/07/10 07:11:32;;;;;;;2.30;0.60;;;;;;;;;;5075814;28;20329;-78
2022/07/10 07:13:57;;;;;;;1.80;0.57;;;;;;;;;;5077130;28;20258;-79
2022/07/10 07:16:37;;;;;;;1.70;0.40;;;;;;;;;;5076088;28;20346;-78
2022/07/10 07:19:04;;;;;;;2.17;0.52;;;;;;;;;;5075929;28;20028;-78
2022/07/10 07:24:13;;;;;;;2.13;0.50;;;;;;;;;;5076519;28;20040;-77
2022/07/10 07:26:38;;;;;;;1.83;0.50;;;;;;;;;;5076105;28;20444;-78
2022/07/10 07:29:04;;;;;;;2.53;0.70;;;;;;;;;;5076065;28;20249;-78
2022/07/10 07:31:29;;;;;;;1.40;0.60;;;;;;;;;;5075399;28;20025;-77
2022/07/10 07:33:54;;;;;;;1.67;0.70;;;;;;;;;;5073852;28;20323;-79
2022/07/10 07:36:19;;;;;;;1.60;0.53;;;;;;;;;;5076364;28;20020;-77
2022/07/10 07:38:45;;;;;;;2.37;0.47;;;;;;;;;;5076442;28;20276;-79
2022/07/10 07:41:10;;;;;;;1.47;0.43;;;;;;;;;;5076470;28;20253;-78
2022/07/10 07:43:36;;;;;;;0.95;0.40;;;;;;;;;;5077591;28;20295;-79
2022/07/10 07:46:01;;;;;;;1.83;0.63;;;;;;;;;;5077315;28;20024;-78
2022/07/10 08:08:04;;;;;;;;;;;;;;;;;;;;;
2022/07/10 08:20:09;;;;;;;1.33;0.60;;;;;;;;;;5085930;22;20072;-78
2022/07/10 08:23:36;;;;;;;4.30;0.63;;;;;;;;;;5075547;28;20052;-78
2022/07/10 08:26:58;;;;;;;1.95;0.80;;;;;;;;;;5079977;28;20149;-77
2022/07/10 08:29:32;;;;;;;1.77;0.50;;;;;;;;;;4998795;28;20156;-76
2022/07/10 08:32:12;;;;;;;7.18;1.02;;;;;;;;;;4999477;28;20054;-75
2022/07/10 08:38:12;;;;;;;1.58;0.60;;;;;;;;;;5028340;22;20455;-78
2022/07/10 08:41:17;;;;;;;3.53;0.63;;;;;;;;;;5062489;28;20036;-78
2022/07/10 08:44:22;;;;;;;1.60;0.60;;;;;;;;;;5051041;28;20056;-78
2022/07/10 08:48:06;;;;;;;;;;;;;;;;;;;;;
2022/07/10 08:50:38;;;;;;;1.42;0.60;;;;;;;;;;4995370;28;20035;-78
2022/07/10 08:53:51;;;;;;;3.42;0.73;;;;;;;;;;5032033;28;20068;-79
2022/07/10 08:59:44;;;;;;;1.45;0.70;;;;;;;;;;5057487;28;20056;-77
2022/07/10 09:06:07;;;;;;;2.25;0.95;;;;;;;;;;5059756;28;20083;-77
2022/07/10 09:09:16;;;;;;;2.47;0.82;;;;;;;;;;5000895;28;20029;-78
2022/07/10 09:11:47;;;;;;;3.85;0.80;;;;;;;;;;4993374;28;20034;-78
2022/07/10 09:17:28;;;;;;;2.35;0.90;;;;;;;;;;5047193;28;20513;-76
2022/07/10 09:19:56;;;;;;;7.85;0.68;;;;;;;;;;5057026;28;20025;-78
2022/07/10 09:22:35;;;;;;;1.88;0.65;;;;;;;;;;5057047;28;20021;-78
2022/07/10 09:28:25;;;;;;;4.22;0.80;;;;;;;;;;5017077;28;20104;-78
2022/07/10 09:30:56;;;;;;;2.65;0.85;;;;;;;;;;5059328;28;20035;-77
2022/07/10 09:33:58;;;;;;;1.77;0.55;;;;;;;;;;5059209;28;20028;-77
2022/07/10 09:36:24;;;;;;;1.27;0.60;;;;;;;;;;5060219;28;20025;-77
2022/07/10 09:38:51;;;;;;;2.35;0.63;;;;;;;;;;5059848;28;20071;-77
2022/07/10 09:41:41;;;;;;;1.25;0.50;;;;;;;;;;5060429;28;20025;-76
2022/07/10 09:44:11;;;;;;;2.28;0.70;;;;;;;;;;5058703;28;20075;-77
2022/07/10 09:47:23;;;;;;;;;;;;;;;;;;;;;
2022/07/10 09:49:51;;;;;;;3.10;0.90;;;;;;;;;;5049438;28;20105;-77
2022/07/10 09:52:20;;;;;;;2.40;0.80;;;;;;;;;;5057113;28;20485;-77
2022/07/10 09:55:05;;;;;;;1.27;0.60;;;;;;;;;;5057952;28;20071;-78
2022/07/10 09:57:42;;;;;;;4.78;0.80;;;;;;;;;;5040776;28;20421;-78
2022/07/10 10:00:25;;;;;;;2.17;0.70;;;;;;;;;;5057333;28;20091;-78
2022/07/10 10:03:24;;;;;;;4.28;0.93;;;;;;;;;;5056927;28;20025;-77
2022/07/10 10:06:11;;;;;;;2.33;0.80;;;;;;;;;;5052544;28;20119;-78
2022/07/10 10:12:57;;;;;;;3.80;0.80;;;;;;;;;;5029182;28;20029;-78
2022/07/10 10:15:56;;;;;;;3.13;0.88;;;;;;;;;;5056351;28;20494;-77
2022/07/10 10:18:25;;;;;;;2.88;0.88;;;;;;;;;;5051779;28;20025;-79
2022/07/10 10:21:16;;;;;;;2.70;0.80;;;;;;;;;;5055829;28;20111;-78
2022/07/10 10:24:16;;;;;;;5.35;0.80;;;;;;;;;;5038791;28;20064;-78
2022/07/10 10:27:00;;;;;;;3.60;0.93;;;;;;;;;;5055367;28;20037;-79
2022/07/10 10:29:26;;;;;;;3.55;0.90;;;;;;;;;;5056835;28;20095;-79
2022/07/10 10:32:16;;;;;;;2.75;0.85;;;;;;;;;;5054274;28;20057;-81
2022/07/10 10:35:15;;;;;;;3.55;1.00;;;;;;;;;;5055545;28;20043;-77
2022/07/10 10:37:55;;;;;;;3.40;0.70;;;;;;;;;;5035896;28;20033;-79
2022/07/10 10:40:36;;;;;;;2.47;0.60;;;;;;;;;;5056339;28;20039;-79
2022/07/10 10:43:36;;;;;;;4.57;0.95;;;;;;;;;;5056289;28;20020;-78
2022/07/10 10:46:26;;;;;;;1.92;0.70;;;;;;;;;;5048690;28;20048;-79
2022/07/10 10:49:25;;;;;;;2.50;1.00;;;;;;;;;;5056611;28;20078;-79
2022/07/10 10:52:15;;;;;;;3.95;1.30;;;;;;;;;;5022882;28;20402;-79
2022/07/10 10:55:08;;;;;;;5.03;0.90;;;;;;;;;;5057987;28;20028;-79
2022/07/10 10:57:40;;;;;;;3.15;0.93;;;;;;;;;;5061504;28;20036;-77
2022/07/10 11:00:08;;;;;;;2.58;1.00;;;;;;;;;;5046590;28;20093;-78
2022/07/10 11:02:41;;;;;;;3.35;1.10;;;;;;;;;;5064282;28;20047;-78
2022/07/10 11:05:19;;;;;;;2.72;0.90;;;;;;;;;;5064396;28;20050;-79
2022/07/10 11:07:58;;;;;;;2.20;0.95;;;;;;;;;;5065213;28;20039;-78
2022/07/10 11:10:29;;;;;;;3.58;1.00;;;;;;;;;;5065278;28;20054;-77
2022/07/10 11:13:08;;;;;;;4.00;0.95;;;;;;;;;;5062016;28;20025;-77
2022/07/10 11:15:39;;;;;;;2.55;0.63;;;;;;;;;;5061105;28;20027;-77
2022/07/10 11:18:12;;;;;;;3.08;1.05;;;;;;;;;;5054899;28;20021;-77
2022/07/10 11:20:40;;;;;;;7.18;0.93;;;;;;;;;;5056076;28;20058;-78
2022/07/10 11:23:34;;;;;;;5.60;0.80;;;;;;;;;;5056821;28;20409;-76
2022/07/10 11:26:08;;;;;;;4.22;1.23;;;;;;;;;;5055944;28;20020;-76
2022/07/10 11:28:53;;;;;;;2.33;0.82;;;;;;;;;;5056028;28;20087;-76
2022/07/10 11:31:19;;;;;;;2.45;0.90;;;;;;;;;;5043023;28;20025;-78
2022/07/10 11:33:48;;;;;;;2.58;0.73;;;;;;;;;;5071915;28;20039;-76
2022/07/10 11:36:25;;;;;;;3.63;1.13;;;;;;;;;;5071958;28;20040;-77
2022/07/10 11:38:56;;;;;;;2.85;1.00;;;;;;;;;;5060992;28;20092;-78
2022/07/10 11:41:22;;;;;;;6.32;1.10;;;;;;;;;;5069736;28;20029;-78
2022/07/10 11:43:52;;;;;;;5.07;1.25;;;;;;;;;;5069706;28;20489;-77
2022/07/10 11:46:21;;;;;;;2.05;0.90;;;;;;;;;;5071799;28;20430;-77
2022/07/10 11:48:47;;;;;;;5.13;1.85;;;;;;;;;;5071987;28;20069;-77
2022/07/10 11:51:24;;;;;;;4.93;0.80;;;;;;;;;;5054133;28;20088;-77
2022/07/10 11:54:01;;;;;;;7.75;1.30;;;;;;;;;;5072150;28;20032;-77
2022/07/10 11:56:34;;;;;;;4.20;0.88;;;;;;;;;;5070544;28;20021;-77
2022/07/10 11:59:19;;;;;;;5.15;0.93;;;;;;;;;;5151328;22;20074;-77
2022/07/10 12:01:52;;;;;;;5.70;1.00;;;;;;;;;;5090597;28;20033;-77
2022/07/10 12:04:23;;;;;;;4.85;0.90;;;;;;;;;;5088368;28;20028;-78
2022/07/10 12:06:55;;;;;;;8.07;1.00;;;;;;;;;;5072899;28;20025;-78
2022/07/10 12:09:22;;;;;;;4.13;1.23;;;;;;;;;;5074750;28;20025;-77
2022/07/10 12:12:04;;;;;;;5.40;1.40;;;;;;;;;;5074448;28;20509;-78
2022/07/10 12:14:30;;;;;;;5.60;1.33;;;;;;;;;;5075129;28;20025;-77
2022/07/10 12:16:56;;;;;;;4.28;1.10;;;;;;;;;;5072551;28;20138;-77
2022/07/10 12:19:30;;;;;;;3.35;0.88;;;;;;;;;;5074921;28;20032;-79
2022/07/10 12:21:55;;;;;;;;;;;;;;;;;;5076311;28;20033;-76
2022/07/10 12:24:21;;;;;;;8.38;1.23;;;;;;;;;;5074813;28;19909;-76
2022/07/10 12:26:48;;;;;;;3.25;0.88;;;;;;;;;;5074850;28;20064;-76
2022/07/10 12:29:22;;;;;;;4.28;0.90;;;;;;;;;;5066292;28;20028;-77
2022/07/10 12:31:49;;;;;;;3.95;1.05;;;;;;;;;;5073658;28;20493;-76
2022/07/10 12:34:15;;;;;;;4.60;1.30;;;;;;;;;;5068250;28;20066;-79
2022/07/10 12:36:45;;;;;;;3.97;1.10;;;;;;;;;;5074815;28;20032;-77
2022/07/10 12:39:12;;;;;;;4.78;1.08;;;;;;;;;;5074246;28;20020;-78
2022/07/10 12:42:02;;;;;;;4.00;1.02;;;;;;;;;;5075448;28;20024;-76
2022/07/10 12:44:39;;;;;;;7.93;1.25;;;;;;;;;;5074828;28;20592;-78
2022/07/10 12:47:11;;;;;;;5.03;1.10;;;;;;;;;;5075464;28;20029;-77
2022/07/10 12:49:57;;;;;;;4.78;1.13;;;;;;;;;;5076506;28;20020;-77
2022/07/10 12:52:31;;;;;;;6.72;1.10;;;;;;;;;;5078755;28;20473;-77
2022/07/10 12:55:21;;;;;;;6.03;0.95;;;;;;;;;;5078345;28;20028;-78
2022/07/10 12:58:04;;;;;;;3.50;1.00;;;;;;;;;;5078528;28;20405;-78
2022/07/10 13:00:33;;;;;;;5.13;1.33;;;;;;;;;;5078685;28;20124;-77
2022/07/10 13:02:59;;;;;;;4.70;1.20;;;;;;;;;;5076711;28;20031;-77
2022/07/10 13:05:35;;;;;;;6.18;1.27;;;;;;;;;;5072453;28;20085;-79
2022/07/10 13:08:16;;;;;;;6.72;1.15;;;;;;;;;;5078614;28;20025;-78
2022/07/10 13:10:43;;;;;;;4.05;1.05;;;;;;;;;;5074598;28;20027;-77
2022/07/10 13:13:08;;;;;;;3.28;0.90;;;;;;;;;;5076960;28;20052;-77
2022/07/10 13:15:39;;;;;;;4.15;1.10;;;;;;;;;;5078618;28;20035;-77
2022/07/10 13:18:12;;;;;;;3.92;0.93;;;;;;;;;;5060581;28;20050;-78
2022/07/10 13:20:37;;;;;;;5.18;1.00;;;;;;;;;;5077689;28;20078;-79
2022/07/10 13:23:02;;;;;;;3.10;1.00;;;;;;;;;;5077243;28;20381;-78
2022/07/10 13:25:27;;;;;;;3.40;0.95;;;;;;;;;;5077818;28;20258;-77
2022/07/10 13:27:53;;;;;;;5.35;1.30;;;;;;;;;;5077303;28;20036;-78
2022/07/10 13:30:18;;;;;;;3.78;1.02;;;;;;;;;;5077590;28;20108;-77
2022/07/10 13:32:46;;;;;;;6.03;1.00;;;;;;;;;;5077943;28;20036;-77
2022/07/10 13:35:12;;;;;;;4.30;0.90;;;;;;;;;;5077554;28;20504;-79
2022/07/10 13:37:37;;;;;;;3.47;1.17;;;;;;;;;;5077684;28;20029;-78
2022/07/10 13:40:03;;;;;;;7.68;1.50;;;;;;;;;;5077232;28;20027;-77
2022/07/10 13:42:28;;;;;;;5.20;1.10;;;;;;;;;;5077576;28;20032;-78
2022/07/10 13:44:55;;;;;;;2.93;1.00;;;;;;;;;;5077505;28;20025;-77
2022/07/10 13:47:20;;;;;;;3.90;1.33;;;;;;;;;;5070461;28;20249;-77
2022/07/10 13:50:58;;;;;;;5.15;1.40;;;;;;;;;;5178328;23;20495;-78
2022/07/10 13:54:00;;;;;;;4.43;1.25;;;;;;;;;;5036892;28;20026;-78
2022/07/10 13:56:32;;;;;;;9.63;2.08;;;;;;;;;;4958581;29;20039;-77
2022/07/10 13:58:57;;;;;;;6.97;1.80;;;;;;;;;;5241226;22;20397;-77
2022/07/10 14:01:23;;;;;;;5.85;1.08;;;;;;;;;;5076575;28;20016;-77
2022/07/10 14:03:48;;;;;;;4.18;1.50;;;;;;;;;;5073827;28;20103;-77
2022/07/10 14:06:13;;;;;;;7.03;1.80;;;;;;;;;;5077037;28;20017;-77
2022/07/10 14:08:45;;;;;;;3.17;1.10;;;;;;;;;;5106939;22;20341;-78
2022/07/10 14:11:27;;;;;;;2.63;1.00;;;;;;;;;;5075873;28;20265;-79
2022/07/10 14:14:01;;;;;;;6.40;1.17;;;;;;;;;;5077388;28;20040;-78
2022/07/10 14:16:57;;;;;;;5.55;1.60;;;;;;;;;;5078181;28;20028;-78
2022/07/10 14:19:25;;;;;;;6.78;1.48;;;;;;;;;;5076865;28;20027;-78
2022/07/10 14:21:53;;;;;;;3.40;1.10;;;;;;;;;;5076646;28;20050;-80
2022/07/10 14:24:18;;;;;;;4.63;1.45;;;;;;;;;;5058756;28;20016;-77
2022/07/10 14:30:42;;;;;;;7.03;1.50;;;;;;;;;;5072992;28;20115;-78
2022/07/10 14:33:18;;;;;;;4.13;1.20;;;;;;;;;;5076553;28;20023;-78
2022/07/10 14:36:04;;;;;;;4.55;1.40;;;;;;;;;;5077666;28;20025;-78
2022/07/10 14:38:58;;;;;;;6.90;1.60;;;;;;;;;;5059399;28;20097;-77
2022/07/10 14:41:27;;;;;;;5.45;1.92;;;;;;;;;;5055739;28;20082;-77
2022/07/10 14:43:55;;;;;;;5.28;1.15;;;;;;;;;;5057924;28;20028;-78
2022/07/10 14:46:26;;;;;;;6.28;1.35;;;;;;;;;;5077126;28;20025;-78
2022/07/10 14:49:03;;;;;;;3.83;1.00;;;;;;;;;;5077319;28;20024;-77
2022/07/10 14:55:53;;;;;;;2.90;1.00;;;;;;;;;;4941286;28;20040;-76
2022/07/10 14:58:36;;;;;;;6.93;1.33;;;;;;;;;;4975511;28;20111;-78
2022/07/10 15:01:15;;;;;;;4.72;1.05;;;;;;;;;;4974082;28;20062;-77
2022/07/10 15:04:23;;;;;;;6.05;1.50;;;;;;;;;;4974058;28;20034;-79
2022/07/10 15:07:09;;;;;;;;;;;;;;;;;;;;;
2022/07/10 15:09:55;;;;;;;3.97;1.20;;;;;;;;;;5074407;28;20024;-77
2022/07/10 15:12:32;;;;;;;5.28;1.33;;;;;;;;;;5057209;28;20062;-77
2022/07/10 15:14:57;;;;;;;6.25;1.15;;;;;;;;;;5057052;28;20501;-78
2022/07/10 15:17:45;;;;;;;8.02;1.88;;;;;;;;;;5075486;28;20043;-78
2022/07/10 15:20:11;;;;;;;3.38;1.17;;;;;;;;;;5057494;28;20044;-77
2022/07/10 15:22:57;;;;;;;6.60;1.00;;;;;;;;;;5058144;28;20036;-77
2022/07/10 15:25:46;;;;;;;6.85;1.30;;;;;;;;;;5056065;28;20501;-77
2022/07/10 15:28:37;;;;;;;4.72;1.08;;;;;;;;;;5061081;28;20050;-77
2022/07/10 15:34:49;;;;;;;;;;;;;;;;;;;;;
2022/07/10 15:52:06;;;;;;;;;;;;;;;;;;;;;
2022/07/10 15:54:39;;;;;;;6.97;1.38;;;;;;;;;;4993544;28;20076;-76
2022/07/10 15:57:07;;;;;;;4.22;1.10;;;;;;;;;;5010145;28;20037;-77
2022/07/10 15:59:34;;;;;;;6.30;1.23;;;;;;;;;;5038405;28;20116;-77
2022/07/10 16:02:49;;;;;;;4.47;1.23;;;;;;;;;;5063243;28;20025;-77
2022/07/10 16:05:34;;;;;;;4.97;1.10;;;;;;;;;;5050913;28;20115;-77
2022/07/10 16:08:00;;;;;;;5.28;1.05;;;;;;;;;;5055236;28;20486;-78
2022/07/10 16:10:28;;;;;;;4.63;1.08;;;;;;;;;;5054960;28;20040;-78
2022/07/10 16:13:25;;;;;;;3.85;1.00;;;;;;;;;;5054971;28;20021;-78
2022/07/10 16:16:46;;;;;;;5.22;1.42;;;;;;;;;;5054874;28;20036;-77
2022/07/10 16:19:12;;;;;;;5.10;1.20;;;;;;;;;;5285402;22;20044;-77
2022/07/10 16:28:03;;;;;;;4.63;1.40;;;;;;;;;;5079108;28;20051;-77
2022/07/10 16:30:39;;;;;;;7.57;1.30;;;;;;;;;;5080029;28;20358;-79
2022/07/10 16:33:47;;;;;;;4.35;1.05;;;;;;;;;;5069976;28;20021;-79
2022/07/10 16:44:14;;;;;;;5.45;1.20;;;;;;;;;;4978012;28;20050;-79
2022/07/10 16:47:04;;;;;;;;;;;;;;;;;;;;;
2022/07/10 17:04:59;;;;;;;6.07;1.85;;;;;;;;;;5089311;22;20466;-77
2022/07/10 17:07:24;;;;;;;5.70;1.40;;;;;;;;;;5079481;28;20020;-77
2022/07/10 17:33:22;;;;;;;7.38;1.45;;;;;;;;;;5085341;28;20043;-77
2022/07/10 17:45:17;;;;;;;5.45;1.35;;;;;;;;;;5038827;28;20079;-78
2022/07/10 17:50:22;;;;;;;7.50;1.38;;;;;;;;;;4740182;26;20107;-78
2022/07/10 17:56:27;;;;;;;7.10;1.20;;;;;;;;;;4939072;29;20150;-77
2022/07/10 17:58:55;;;;;;;5.93;1.23;;;;;;;;;;4967367;28;20550;-78
2022/07/10 18:14:06;;;;;;;11.20;1.50;;;;;;;;;;5909172;22;20037;-77
2022/07/10 18:16:47;;;;;;;;;;;;;;;;;;;;;
2022/07/10 18:20:01;;;;;;;;;;;;;;;;;;;;;
2022/07/10 18:36:47;;;;;;;9.38;1.60;;;;;;;;;;5008911;28;20086;-79
2022/07/10 18:39:41;;;;;;;7.35;1.55;;;;;;;;;;5068305;28;20178;-79
2022/07/10 18:42:13;;;;;;;8.27;1.40;;;;;;;;;;5058027;28;20040;-80
2022/07/10 19:52:31;;;;;;;;;;;;;;;;;;;;;
2022/07/10 19:58:59;;;;;;;;;;;;;;;;;;;;;
2022/07/10 20:02:11;;;;;;;;;;;;;;;;;;;;;
2022/07/10 20:04:55;;;;;;;8.65;1.60;;;;;;;;;;5075833;28;20604;-77
2022/07/10 20:07:20;;;;;;;5.03;1.40;;;;;;;;;;5077758;28;20051;-78
2022/07/10 20:10:31;;;;;;;;;;;;;;;;;;;;;
2022/07/10 20:13:17;;;;;;;6.25;1.30;;;;;;;;;;4993811;28;20042;-78
2022/07/10 20:23:37;;;;;;;5.50;1.15;;;;;;;;;;4917317;29;20063;-77
2022/07/10 20:29:44;;;;;;;4.93;1.02;;;;;;;;;;4918122;29;20092;-79
2022/07/10 20:32:50;;;;;;;6.95;1.30;;;;;;;;;;4946634;28;20062;-79
2022/07/10 20:42:59;;;;;;;6.40;1.10;;;;;;;;;;4936862;29;20058;-78
2022/07/10 20:49:20;;;;;;;;;;;;;;;;;;4975354;28;20508;-78
2022/07/10 21:11:03;;;;;;;5.25;1.33;;;;;;;;;;4977353;28;20094;-79
2022/07/10 21:14:44;;;;;;;;;;;;;;;;;;;;;
2022/07/10 21:24:21;;;;;;;4.80;1.48;;;;;;;;;;4921691;29;20025;-79
2022/07/10 21:43:07;;;;;;;;;;;;;;;;;;;;;
2022/07/10 21:46:06;;;;;;;4.57;1.20;;;;;;;;;;4892228;29;20032;-78
2022/07/10 22:16:38;;;;;;;5.32;1.13;;;;;;;;;;4995356;28;20038;-78
2022/07/10 22:19:04;;;;;;;5.60;1.05;;;;;;;;;;4996375;28;20186;-78
2022/07/10 22:21:29;;;;;;;3.90;1.30;;;;;;;;;;5038923;28;20029;-78
2022/07/10 22:23:54;;;;;;;8.25;1.20;;;;;;;;;;5059853;28;20032;-79
2022/07/10 22:26:20;;;;;;;3.63;1.08;;;;;;;;;;5059697;28;20391;-81
2022/07/10 22:28:45;;;;;;;6.03;1.35;;;;;;;;;;5056843;28;20394;-78
2022/07/10 22:31:17;;;;;;;7.57;1.40;;;;;;;;;;5038975;28;20032;-78
2022/07/10 22:33:46;;;;;;;3.72;1.10;;;;;;;;;;5056680;28;20159;-77
2022/07/10 22:36:12;;;;;;;4.47;1.30;;;;;;;;;;5057142;28;20063;-77
2022/07/10 22:38:38;;;;;;;4.88;1.30;;;;;;;;;;5056682;28;20028;-77
2022/07/10 22:41:03;;;;;;;7.15;1.30;;;;;;;;;;5037799;28;20482;-77
2022/07/10 22:43:29;;;;;;;4.28;1.00;;;;;;;;;;5038190;28;20028;-80
2022/07/10 22:45:56;;;;;;;8.15;1.48;;;;;;;;;;5056854;28;20090;-77
2022/07/10 22:48:41;;;;;;;4.70;1.05;;;;;;;;;;5164290;22;20397;-78
2022/07/10 22:51:29;;;;;;;2.70;0.90;;;;;;;;;;5077382;28;20119;-78
2022/07/10 22:54:00;;;;;;;4.78;1.15;;;;;;;;;;5076793;28;20367;-78
2022/07/10 22:56:37;;;;;;;3.65;0.90;;;;;;;;;;5077250;28;20074;-78
2022/07/10 22:59:31;;;;;;;5.82;1.20;;;;;;;;;;5067357;28;20048;-77
2022/07/10 23:02:34;;;;;;;;;;;;;;;;;;;;;
2022/07/10 23:05:00;;;;;;;3.40;1.10;;;;;;;;;;4993792;28;20063;-79
2022/07/10 23:07:44;;;;;;;4.45;0.98;;;;;;;;;;5075527;28;20024;-78
2022/07/10 23:11:15;;;;;;;5.13;1.00;;;;;;;;;;5076997;28;20021;-78
2022/07/10 23:13:43;;;;;;;5.65;1.20;;;;;;;;;;4992396;28;20041;-79
2022/07/10 23:16:32;;;;;;;7.28;1.33;;;;;;;;;;4995203;28;20035;-77
2022/07/10 23:19:00;;;;;;;2.65;0.95;;;;;;;;;;4966661;28;20062;-77
2022/07/10 23:21:50;;;;;;;3.25;1.10;;;;;;;;;;4995299;28;20034;-78
2022/07/10 23:24:38;;;;;;;6.63;1.10;;;;;;;;;;5043625;28;20044;-77
2022/07/10 23:28:12;;;;;;;3.38;1.02;;;;;;;;;;5060444;28;20036;-78
2022/07/10 23:30:40;;;;;;;;;;;;;;;;;;;;;
2022/07/10 23:33:17;;;;;;;6.28;1.10;;;;;;;;;;5074794;28;20013;-79
2022/07/10 23:35:45;;;;;;;3.65;1.40;;;;;;;;;;5071932;28;20072;-79
2022/07/10 23:38:37;;;;;;;4.45;1.10;;;;;;;;;;5066003;28;20028;-77
2022/07/10 23:51:14;;;;;;;2.90;0.98;;;;;;;;;;5014225;28;20068;-78
2022/07/10 23:54:52;;;;;;;2.45;0.90;;;;;;;;;;5071961;28;20032;-77
2022/07/10 23:57:14;;;;;;;2.67;0.80;;;;;;;;;;5070597;28;20592;-77
2022/07/10 23:59:42;;;;;;;3.80;1.27;;;;;;;;;;5076058;28;20492;-80
